メインページ
METAR-TAF:

METAR-TAF

空港 :

Bleibler Ranch Aerodrome

クリントン, ブリティッシュコロンビア州, カナダ

緯度: 51-15-59N, 経度: 121-41-05W, 海抜: 1126m

現時点の気象観測

当レポートは20分前の10:37(UTC)に作成
西/北西の風 6kt、西/南西から西/北西の間で変化する
気温 4°C
湿度 87%
気圧 1018 hPa
視程: 14.5km
高度2100ftの雲はほとんどない
高度2600ftの曇り

METAR: CYIN 191037Z AUTO 29006KT 240V300 9SM RA FEW021 OVC026 04/02 A3005 RMK SLP180

時間: 03:57 (10:57 UTC)


TAF: 見つかりません

4,000以上の空港の気象観測と天気予報(METAR報とTAF報)

利用可能な観測所は地図上に黄色い丸と赤い丸で示す。

丸の上にカーソルを重ねると観測所名を参照できる。

次にクリックすると気象観測と天気予報を参照できる。

マップの切り替え:黒色「×」印の緑ボタンをクリックして拡大、「-」印の緑ボタンをクリックして縮小、緑色の三角印をクリックして隣りの地図に切り替え


METAR-TAF: